Time;durP1;ratioP1;P1;durP2;ratioP2;P2;SDS_P1;SDS_P2;PMS_P1;PMS_P2;Temp;Humidity;BMP_temperature;BMP_pressure;BME280_temperature;BME280_humidity;BME280_pressure;Samples;Min_cycle;Max_cycle;Signal;HPM_P1;HPM_P2
2021/12/30 00:00:51;;;;;;;4.20;2.90;;;4.80;99.90;;;;;;5051269;28;20522;-55
2021/12/30 00:03:19;;;;;;;3.97;3.03;;;4.90;99.90;;;;;;5048966;28;20559;-55
2021/12/30 00:05:46;;;;;;;4.73;2.93;;;5.00;99.90;;;;;;5049878;28;20949;-54
2021/12/30 00:08:13;;;;;;;2.43;2.17;;;5.10;99.90;;;;;;5044358;28;20484;-54
2021/12/30 00:10:41;;;;;;;1.40;0.90;;;5.20;99.90;;;;;;5049599;28;20442;-55
2021/12/30 00:13:09;;;;;;;1.50;1.30;;;4.70;99.90;;;;;;5075468;22;20863;-84
2021/12/30 00:15:38;;;;;;;2.80;1.20;;;4.60;99.90;;;;;;5104667;28;20450;-84
2021/12/30 00:18:07;;;;;;;1.70;1.60;;;4.80;99.90;;;;;;5109245;28;20457;-83
2021/12/30 00:20:35;;;;;;;1.83;1.73;;;5.00;99.90;;;;;;5098870;28;20474;-85
2021/12/30 00:23:03;;;;;;;2.67;2.27;;;5.00;99.90;;;;;;5098099;28;20499;-85
2021/12/30 00:25:39;;;;;;;4.87;2.40;;;5.10;99.90;;;;;;5094080;28;20465;-85
2021/12/30 00:28:06;;;;;;;3.80;3.50;;;5.30;99.90;;;;;;5093505;28;20505;-85
2021/12/30 00:30:33;;;;;;;3.73;3.37;;;5.30;99.90;;;;;;5100826;28;20473;-85
2021/12/30 00:33:02;;;;;;;4.90;1.87;;;5.30;99.90;;;;;;5095878;28;20500;-84
2021/12/30 00:35:29;;;;;;;3.50;2.70;;;5.40;99.90;;;;;;5100859;28;20488;-84
2021/12/30 00:37:56;;;;;;;2.40;2.20;;;5.40;99.90;;;;;;5100845;28;20474;-85
2021/12/30 00:40:23;;;;;;;2.50;2.30;;;5.50;99.90;;;;;;5103801;28;20506;-85
2021/12/30 00:42:50;;;;;;;2.93;1.33;;;5.30;99.90;;;;;;5098075;28;20545;-85
2021/12/30 00:45:17;;;;;;;1.13;1.00;;;5.30;99.90;;;;;;5096241;28;20908;-85
2021/12/30 00:47:44;;;;;;;4.10;3.20;;;5.40;99.90;;;;;;5089000;28;20575;-84
2021/12/30 00:50:13;;;;;;;3.70;2.43;;;5.40;99.90;;;;;;5095346;28;20567;-85
2021/12/30 00:52:40;;;;;;;3.57;1.10;;;5.30;99.90;;;;;;5094201;28;20485;-84
2021/12/30 00:55:08;;;;;;;1.20;1.10;;;4.80;99.90;;;;;;5090676;28;20452;-85
2021/12/30 00:57:35;;;;;;;2.37;2.17;;;4.70;99.90;;;;;;5095538;28;20482;-84
2021/12/30 01:00:04;;;;;;;2.20;2.00;;;4.90;99.90;;;;;;5093575;28;20882;-84
2021/12/30 01:02:31;;;;;;;2.10;1.60;;;5.00;99.90;;;;;;5086401;28;21036;-84
2021/12/30 01:04:58;;;;;;;1.93;1.63;;;4.80;99.90;;;;;;5099140;28;20431;-85
2021/12/30 01:07:27;;;;;;;2.87;1.77;;;4.60;99.90;;;;;;5100557;28;21007;-85
2021/12/30 01:09:54;;;;;;;1.60;1.50;;;4.70;99.90;;;;;;5091662;28;20468;-84
2021/12/30 01:12:21;;;;;;;1.40;1.30;;;4.40;99.90;;;;;;5100172;28;20942;-85
2021/12/30 01:14:48;;;;;;;1.70;1.60;;;4.40;99.90;;;;;;5095529;28;20444;-85
2021/12/30 01:17:21;;;;;;;1.53;1.43;;;4.60;99.90;;;;;;5099572;28;20556;-85
2021/12/30 01:19:51;;;;;;;2.70;1.70;;;4.80;99.90;;;;;;5093919;28;20829;-85
2021/12/30 01:22:20;;;;;;;2.33;2.00;;;4.90;99.90;;;;;;5094450;28;20945;-85
2021/12/30 01:24:49;;;;;;;2.07;1.40;;;4.70;99.90;;;;;;5097459;28;20449;-86
2021/12/30 01:27:16;;;;;;;2.03;1.90;;;4.80;99.90;;;;;;5094646;28;20953;-85
2021/12/30 01:29:43;;;;;;;4.27;3.10;;;4.80;99.90;;;;;;5101916;28;20451;-84
2021/12/30 01:32:11;;;;;;;2.73;2.53;;;4.70;99.90;;;;;;5092218;28;20504;-85
2021/12/30 01:34:38;;;;;;;5.10;2.93;;;4.80;99.90;;;;;;5096034;28;20451;-84
2021/12/30 01:37:06;;;;;;;3.60;2.60;;;4.80;99.90;;;;;;5095098;28;20474;-85
2021/12/30 01:39:37;;;;;;;5.13;4.00;;;4.90;99.90;;;;;;5093461;28;20462;-84
2021/12/30 01:42:07;;;;;;;2.13;1.93;;;4.40;99.90;;;;;;5095667;28;20434;-84
2021/12/30 01:44:34;;;;;;;2.07;1.90;;;4.20;99.90;;;;;;5098971;28;20499;-84
2021/12/30 01:47:02;;;;;;;1.67;1.57;;;4.20;99.90;;;;;;5094237;28;20466;-85
2021/12/30 01:49:29;;;;;;;1.73;1.50;;;4.30;99.90;;;;;;5094991;28;20922;-84
2021/12/30 01:51:57;;;;;;;1.27;1.17;;;4.50;99.90;;;;;;5099856;28;20482;-84
2021/12/30 01:54:25;;;;;;;0.90;0.73;;;4.60;99.90;;;;;;5095105;28;20453;-85
2021/12/30 01:56:53;;;;;;;9.57;7.27;;;4.70;99.90;;;;;;5088374;28;20485;-85
2021/12/30 01:59:24;;;;;;;5.83;4.53;;;4.70;99.90;;;;;;5097545;28;20496;-85
2021/12/30 02:01:56;;;;;;;13.10;7.00;;;4.70;99.90;;;;;;5095692;28;20486;-84
2021/12/30 02:04:23;;;;;;;5.40;3.50;;;4.20;99.90;;;;;;5095109;28;20457;-85
2021/12/30 02:06:50;;;;;;;4.40;3.87;;;3.60;99.90;;;;;;5097059;28;20874;-85
2021/12/30 02:09:19;;;;;;;5.67;4.77;;;3.60;99.90;;;;;;5093982;28;20470;-85
2021/12/30 02:11:47;;;;;;;4.00;3.60;;;3.80;99.90;;;;;;5094473;28;20576;-86
2021/12/30 02:14:14;;;;;;;2.83;2.53;;;4.00;99.90;;;;;;5100874;28;20982;-85
2021/12/30 02:16:43;;;;;;;2.30;2.10;;;4.00;99.90;;;;;;5096069;28;20464;-82
2021/12/30 02:19:10;;;;;;;2.97;2.60;;;4.10;99.90;;;;;;5100599;28;20929;-84
2021/12/30 02:21:39;;;;;;;6.23;4.73;;;4.30;99.90;;;;;;5099160;28;20509;-85
2021/12/30 02:24:06;;;;;;;2.93;2.73;;;4.30;99.90;;;;;;5108088;28;20982;-85
2021/12/30 02:26:34;;;;;;;2.50;2.30;;;4.10;99.90;;;;;;5098260;28;20449;-83
2021/12/30 02:29:01;;;;;;;1.70;1.60;;;3.90;99.90;;;;;;5100717;28;20541;-83
2021/12/30 02:31:30;;;;;;;1.67;1.57;;;4.00;99.90;;;;;;5103826;28;20479;-84
2021/12/30 02:33:58;;;;;;;3.47;2.43;;;4.20;99.90;;;;;;5092917;28;20481;-84
2021/12/30 02:36:29;;;;;;;2.53;1.90;;;4.30;99.90;;;;;;5103288;28;20460;-85
2021/12/30 02:38:58;;;;;;;5.93;4.77;;;4.20;99.90;;;;;;5109417;28;20486;-84
2021/12/30 02:41:27;;;;;;;6.00;5.40;;;4.30;99.90;;;;;;5094992;28;20551;-84
2021/12/30 02:43:54;;;;;;;6.07;5.27;;;4.30;99.90;;;;;;5091465;28;20448;-84
2021/12/30 02:46:28;;;;;;;5.90;4.57;;;4.10;99.90;;;;;;5091605;28;20479;-84
2021/12/30 02:48:56;;;;;;;4.10;3.80;;;3.70;99.90;;;;;;5093231;28;20477;-85
2021/12/30 02:51:23;;;;;;;3.30;2.10;;;3.90;99.90;;;;;;5092894;28;20869;-83
2021/12/30 02:53:51;;;;;;;2.40;2.20;;;4.00;99.90;;;;;;5086640;28;20485;-84
2021/12/30 02:56:20;;;;;;;1.67;1.57;;;4.20;99.90;;;;;;5078348;28;20488;-86
2021/12/30 02:58:47;;;;;;;1.30;1.20;;;4.20;99.90;;;;;;5092517;28;20981;-84
2021/12/30 03:01:17;;;;;;;1.20;1.20;;;4.10;99.90;;;;;;5089286;28;20540;-85
2021/12/30 03:03:45;;;;;;;1.27;0.87;;;4.30;99.90;;;;;;5089238;28;20483;-88
2021/12/30 03:06:13;;;;;;;5.03;4.53;;;4.40;99.90;;;;;;5088153;28;20463;-85
2021/12/30 03:08:41;;;;;;;8.63;4.83;;;4.50;99.90;;;;;;5096037;28;20474;-86
2021/12/30 03:11:09;;;;;;;4.53;3.27;;;4.60;99.90;;;;;;5092682;28;20484;-85
2021/12/30 03:13:42;;;;;;;3.00;2.20;;;4.60;99.90;;;;;;5097386;28;20896;-85
2021/12/30 03:16:12;;;;;;;6.33;5.23;;;4.70;99.90;;;;;;5095109;28;20452;-85
2021/12/30 03:18:40;;;;;;;4.80;4.40;;;4.70;99.90;;;;;;5091219;28;20480;-85
2021/12/30 03:21:08;;;;;;;3.40;3.00;;;4.80;99.90;;;;;;5098275;28;20479;-85
2021/12/30 03:23:35;;;;;;;3.40;3.10;;;4.80;99.90;;;;;;5097118;28;20503;-85
2021/12/30 03:26:05;;;;;;;4.27;3.87;;;4.80;99.90;;;;;;5095119;28;21008;-85
2021/12/30 03:28:32;;;;;;;4.87;3.63;;;4.90;99.90;;;;;;5094217;28;21004;-83
2021/12/30 03:31:01;;;;;;;5.00;4.60;;;4.90;99.90;;;;;;5091089;28;20475;-85
2021/12/30 03:33:29;;;;;;;4.10;3.73;;;5.00;99.90;;;;;;5094343;28;20439;-84
2021/12/30 03:35:59;;;;;;;3.37;3.13;;;4.90;99.90;;;;;;5099316;28;20516;-85
2021/12/30 03:38:26;;;;;;;2.60;2.40;;;4.30;99.90;;;;;;5095164;28;20467;-89
2021/12/30 03:40:53;;;;;;;3.07;2.87;;;4.30;99.90;;;;;;5095456;28;20496;-84
2021/12/30 03:43:20;;;;;;;2.30;2.10;;;4.30;99.90;;;;;;5100128;28;20442;-85
2021/12/30 03:45:47;;;;;;;1.60;1.50;;;4.20;99.90;;;;;;5102780;28;20466;-86
2021/12/30 03:48:15;;;;;;;2.07;1.40;;;4.10;99.90;;;;;;5096459;28;20508;-85
2021/12/30 03:50:44;;;;;;;1.73;1.60;;;4.00;99.90;;;;;;5098144;28;20458;-85
2021/12/30 03:53:14;;;;;;;5.17;4.77;;;4.20;99.90;;;;;;5099006;28;20451;-86
2021/12/30 03:55:41;;;;;;;3.40;3.10;;;4.30;99.90;;;;;;5099104;28;20458;-85
2021/12/30 03:58:08;;;;;;;3.53;3.23;;;4.30;99.90;;;;;;5098147;28;20471;-85
2021/12/30 04:00:37;;;;;;;3.13;2.77;;;4.20;99.90;;;;;;5096515;28;20488;-85
2021/12/30 04:03:05;;;;;;;2.67;2.47;;;4.20;99.90;;;;;;5101464;28;20455;-85
2021/12/30 04:05:34;;;;;;;2.80;2.50;;;4.30;99.90;;;;;;5087543;28;20482;-86
2021/12/30 04:08:01;;;;;;;2.47;2.27;;;4.40;99.90;;;;;;5099342;28;20470;-85
2021/12/30 04:10:28;;;;;;;2.50;2.30;;;4.50;99.90;;;;;;5099975;28;20478;-86
2021/12/30 04:12:56;;;;;;;2.27;2.07;;;4.50;99.90;;;;;;5101528;28;20512;-85
2021/12/30 04:15:23;;;;;;;2.50;1.93;;;4.60;99.90;;;;;;5100302;28;20458;-85
2021/12/30 04:17:50;;;;;;;2.37;2.17;;;4.60;99.90;;;;;;5103930;28;20482;-84
2021/12/30 04:20:18;;;;;;;1.50;1.40;;;4.70;99.90;;;;;;5103016;28;20458;-86
2021/12/30 04:22:46;;;;;;;2.17;1.30;;;4.40;99.90;;;;;;5100666;28;20504;-85
2021/12/30 04:25:16;;;;;;;2.30;2.20;;;4.60;99.90;;;;;;5097327;28;20478;-84
2021/12/30 04:27:44;;;;;;;2.73;2.53;;;4.60;99.90;;;;;;5093517;28;20546;-87
2021/12/30 04:30:13;;;;;;;1.57;1.37;;;4.00;99.90;;;;;;5098256;28;20510;-85
2021/12/30 04:32:40;;;;;;;3.67;3.23;;;3.80;99.90;;;;;;5099850;28;20506;-86
2021/12/30 04:35:09;;;;;;;3.13;2.93;;;4.00;99.90;;;;;;5100985;28;20454;-85
2021/12/30 04:37:36;;;;;;;3.07;2.87;;;4.20;99.90;;;;;;5103214;28;20457;-85
2021/12/30 04:40:06;;;;;;;1.93;1.83;;;4.30;99.90;;;;;;5106757;28;20444;-84
2021/12/30 04:42:33;;;;;;;2.27;2.10;;;4.10;99.90;;;;;;5107412;28;20487;-88
2021/12/30 04:45:00;;;;;;;3.17;2.87;;;3.80;99.90;;;;;;5109358;28;20505;-84
2021/12/30 04:47:27;;;;;;;3.63;3.33;;;4.00;99.90;;;;;;5095796;28;20526;-84
2021/12/30 04:49:57;;;;;;;2.10;1.90;;;4.20;99.90;;;;;;5100354;28;20475;-85
2021/12/30 04:52:24;;;;;;;2.70;2.50;;;4.20;99.90;;;;;;5102455;28;20501;-84
2021/12/30 04:54:51;;;;;;;2.50;2.30;;;4.00;99.90;;;;;;5095668;28;20817;-85
2021/12/30 04:57:19;;;;;;;4.07;3.77;;;4.10;99.90;;;;;;5095104;28;20990;-85
2021/12/30 04:59:46;;;;;;;3.43;3.13;;;4.20;99.90;;;;;;5109134;28;20460;-85
2021/12/30 05:02:13;;;;;;;4.10;3.77;;;4.30;99.90;;;;;;5096289;28;20492;-86
2021/12/30 05:04:41;;;;;;;3.30;3.10;;;4.40;99.90;;;;;;5096792;28;20963;-85
2021/12/30 05:07:08;;;;;;;1.90;1.67;;;4.40;99.90;;;;;;5096054;28;20516;-86
2021/12/30 05:09:35;;;;;;;2.00;1.90;;;4.40;99.90;;;;;;5090956;28;20481;-84
2021/12/30 05:12:02;;;;;;;2.23;2.03;;;4.60;99.90;;;;;;5100808;28;20449;-85
2021/12/30 05:14:30;;;;;;;1.50;1.40;;;4.70;99.90;;;;;;5087643;28;20493;-86
2021/12/30 05:17:02;;;;;;;2.80;2.47;;;4.70;99.90;;;;;;5100220;28;20503;-85
2021/12/30 05:19:30;;;;;;;3.23;2.40;;;4.70;99.90;;;;;;5095679;28;20451;-85
2021/12/30 05:21:57;;;;;;;3.40;3.10;;;4.80;99.90;;;;;;5101695;28;20473;-85
2021/12/30 05:24:24;;;;;;;3.10;2.80;;;4.90;99.90;;;;;;5100560;28;20495;-86
2021/12/30 05:26:51;;;;;;;3.40;2.70;;;4.90;99.90;;;;;;5094046;28;20489;-86
2021/12/30 05:29:18;;;;;;;5.00;4.60;;;4.50;99.90;;;;;;5095806;28;21006;-84
2021/12/30 05:31:46;;;;;;;4.20;3.50;;;4.00;99.90;;;;;;5093135;28;21143;-84
2021/12/30 05:34:13;;;;;;;4.27;3.83;;;4.00;99.90;;;;;;5097370;28;20445;-84
2021/12/30 05:36:40;;;;;;;3.80;3.50;;;4.20;99.90;;;;;;5094922;28;20495;-84
2021/12/30 05:39:08;;;;;;;3.67;3.47;;;4.40;99.90;;;;;;5098013;28;20492;-84
2021/12/30 05:41:35;;;;;;;4.40;4.00;;;4.30;99.90;;;;;;5104753;28;21030;-84
2021/12/30 05:44:02;;;;;;;4.47;4.07;;;4.50;99.90;;;;;;5097623;28;20444;-85
2021/12/30 05:46:29;;;;;;;3.50;3.20;;;4.60;99.90;;;;;;5100075;28;20482;-84
2021/12/30 05:48:58;;;;;;;2.87;2.30;;;4.70;99.90;;;;;;5095432;28;20524;-85
2021/12/30 05:51:25;;;;;;;3.67;2.93;;;4.80;99.90;;;;;;5097991;28;20456;-85
2021/12/30 05:53:52;;;;;;;5.53;5.03;;;4.90;99.90;;;;;;5095423;28;20519;-85
2021/12/30 05:56:19;;;;;;;4.63;4.23;;;4.90;99.90;;;;;;5095102;28;20494;-85
2021/12/30 05:58:46;;;;;;;4.23;3.83;;;5.00;99.90;;;;;;5104453;22;20598;-50
2021/12/30 06:01:13;;;;;;;3.80;3.50;;;5.00;99.90;;;;;;5089232;28;20869;-52
2021/12/30 06:03:40;;;;;;;4.70;4.30;;;5.00;99.90;;;;;;5086273;28;20514;-49
2021/12/30 06:06:08;;;;;;;2.67;2.20;;;5.00;99.90;;;;;;5069775;28;20451;-49
2021/12/30 06:08:36;;;;;;;2.30;2.20;;;5.00;99.90;;;;;;5071387;28;21362;-52
2021/12/30 06:11:04;;;;;;;3.67;2.90;;;5.10;99.90;;;;;;5069616;28;20443;-51
2021/12/30 06:13:31;;;;;;;5.37;5.00;;;5.10;99.90;;;;;;5071803;28;20509;-49
2021/12/30 06:15:58;;;;;;;4.63;4.23;;;5.10;99.90;;;;;;5063350;28;20539;-51
2021/12/30 06:18:24;;;;;;;3.03;2.83;;;5.10;99.90;;;;;;5062383;28;20912;-49
2021/12/30 06:20:51;;;;;;;3.50;3.20;;;5.10;99.90;;;;;;5065456;28;20476;-49
2021/12/30 06:23:20;;;;;;;6.53;5.87;;;5.00;99.90;;;;;;5065824;28;20545;-53
2021/12/30 06:25:47;;;;;;;5.83;5.20;;;5.00;99.90;;;;;;5063993;28;20494;-49
2021/12/30 06:28:14;;;;;;;4.57;4.23;;;4.90;99.90;;;;;;5062617;28;20879;-50
2021/12/30 06:30:40;;;;;;;2.50;2.30;;;4.90;99.90;;;;;;5064782;28;21036;-52
2021/12/30 06:33:07;;;;;;;5.50;4.83;;;4.90;99.90;;;;;;5064410;28;20526;-49
2021/12/30 06:35:34;;;;;;;5.67;5.17;;;4.90;99.90;;;;;;5068564;28;21016;-49
2021/12/30 06:38:02;;;;;;;6.67;6.13;;;4.90;99.90;;;;;;5078368;28;20447;-49
2021/12/30 06:40:31;;;;;;;8.97;5.90;;;4.80;99.90;;;;;;5075978;28;20954;-49
2021/12/30 06:42:58;;;;;;;5.83;5.33;;;4.20;99.90;;;;;;5069111;28;20555;-51
2021/12/30 06:45:25;;;;;;;4.93;4.53;;;4.10;99.90;;;;;;5062703;28;20490;-51
2021/12/30 06:47:52;;;;;;;6.20;4.10;;;4.30;99.90;;;;;;5068111;28;20540;-50
2021/12/30 06:50:22;;;;;;;4.40;4.00;;;4.50;99.90;;;;;;5069357;28;20844;-49
2021/12/30 06:52:49;;;;;;;3.93;3.63;;;4.60;99.90;;;;;;5068878;28;20472;-49
2021/12/30 06:55:17;;;;;;;2.70;2.27;;;4.10;99.90;;;;;;5073995;28;20534;-50
2021/12/30 06:57:45;;;;;;;3.20;2.90;;;4.20;99.90;;;;;;5073735;28;20483;-47
2021/12/30 07:00:14;;;;;;;3.83;3.43;;;4.40;99.90;;;;;;5072289;28;20537;-52
2021/12/30 07:02:42;;;;;;;7.70;6.67;;;4.50;99.90;;;;;;5072084;28;20474;-50
2021/12/30 07:05:09;;;;;;;10.13;8.50;;;4.60;99.90;;;;;;5077472;28;20488;-51
2021/12/30 07:07:36;;;;;;;8.00;7.33;;;4.50;99.90;;;;;;5079869;28;20536;-50
2021/12/30 07:10:04;;;;;;;7.43;6.73;;;4.50;99.90;;;;;;5073652;28;20560;-52
2021/12/30 07:12:31;;;;;;;6.70;6.03;;;4.30;99.90;;;;;;5078750;28;20483;-50
2021/12/30 07:14:59;;;;;;;6.70;6.00;;;4.50;99.90;;;;;;5074218;28;20534;-50
2021/12/30 07:17:29;;;;;;;5.20;4.80;;;4.40;99.90;;;;;;5068510;28;21009;-49
2021/12/30 07:19:56;;;;;;;4.03;3.73;;;4.30;99.90;;;;;;5072935;28;20929;-51
2021/12/30 07:22:23;;;;;;;3.57;3.30;;;4.30;99.90;;;;;;5073426;28;20475;-51
2021/12/30 07:24:50;;;;;;;7.63;6.93;;;4.40;99.90;;;;;;5074195;28;20552;-52
2021/12/30 07:27:17;;;;;;;5.97;5.40;;;4.50;99.90;;;;;;5071955;28;20883;-49
2021/12/30 07:29:44;;;;;;;6.50;5.57;;;4.60;99.90;;;;;;5071685;28;20923;-48
2021/12/30 07:32:12;;;;;;;7.20;6.60;;;4.70;99.90;;;;;;5073566;28;20515;-51
2021/12/30 07:34:39;;;;;;;9.70;8.73;;;4.70;99.90;;;;;;5079682;28;20900;-49
2021/12/30 07:37:06;;;;;;;12.10;10.00;;;4.70;99.90;;;;;;5074599;28;20542;-45
2021/12/30 07:39:33;;;;;;;10.93;9.83;;;4.50;99.90;;;;;;5073078;28;20542;-49
2021/12/30 07:42:00;;;;;;;13.23;10.10;;;4.70;99.90;;;;;;5077721;28;20470;-48
2021/12/30 07:44:27;;;;;;;10.57;9.20;;;4.80;99.90;;;;;;5079832;28;20501;-48
2021/12/30 07:46:53;;;;;;;7.83;7.03;;;4.90;99.90;;;;;;5072465;28;20604;-48
2021/12/30 07:49:22;;;;;;;3.77;3.47;;;4.90;99.90;;;;;;5072960;28;20482;-49
2021/12/30 07:51:49;;;;;;;5.17;4.77;;;4.70;99.90;;;;;;5074712;28;20522;-49
2021/12/30 07:54:15;;;;;;;6.83;5.77;;;4.70;99.90;;;;;;5072075;28;20548;-52
2021/12/30 07:56:43;;;;;;;13.70;9.47;;;5.00;99.90;;;;;;5072232;28;20538;-49
2021/12/30 07:59:10;;;;;;;21.33;19.00;;;5.10;99.90;;;;;;5071934;28;20523;-49
2021/12/30 08:01:36;;;;;;;5.37;4.87;;;5.10;99.90;;;;;;5071459;28;20856;-49
2021/12/30 08:04:04;;;;;;;3.40;3.13;;;5.10;99.90;;;;;;5071971;28;20550;-50
2021/12/30 08:06:33;;;;;;;11.67;10.70;;;5.30;99.90;;;;;;5070410;28;20536;-49
2021/12/30 08:09:01;;;;;;;9.10;8.30;;;5.40;99.90;;;;;;5073890;28;20544;-47
2021/12/30 08:11:28;;;;;;;2.80;2.60;;;5.50;99.90;;;;;;5071659;28;20600;-49
2021/12/30 08:13:55;;;;;;;2.70;2.30;;;5.30;99.90;;;;;;5072737;28;20503;-48
2021/12/30 08:16:22;;;;;;;8.43;7.30;;;5.10;99.90;;;;;;5075259;28;20494;-48
2021/12/30 08:18:48;;;;;;;11.47;9.40;;;5.30;99.90;;;;;;5073238;28;20985;-51
2021/12/30 08:21:15;;;;;;;8.43;7.73;;;5.20;99.90;;;;;;5077515;28;20482;-49
2021/12/30 08:23:44;;;;;;;9.60;8.20;;;5.10;99.90;;;;;;5072226;28;20558;-49
2021/12/30 08:26:11;;;;;;;12.60;11.30;;;5.00;99.90;;;;;;5076080;28;20478;-49
2021/12/30 08:28:37;;;;;;;17.13;11.20;;;5.10;99.90;;;;;;5074274;28;20538;-51
2021/12/30 08:31:05;;;;;;;14.63;13.10;;;5.20;99.90;;;;;;5071359;28;21059;-50
2021/12/30 08:33:32;;;;;;;22.33;18.80;;;5.30;99.90;;;;;;5069777;28;20549;-50
2021/12/30 08:35:59;;;;;;;11.87;10.40;;;5.10;99.90;;;;;;5077325;28;20474;-48
2021/12/30 08:38:26;;;;;;;10.43;9.53;;;5.30;99.90;;;;;;5071522;28;20487;-50
2021/12/30 08:40:55;;;;;;;10.20;8.57;;;5.40;99.90;;;;;;5071435;28;20535;-49
2021/12/30 08:43:22;;;;;;;12.60;7.93;;;5.30;99.90;;;;;;5069886;28;20554;-48
2021/12/30 08:45:49;;;;;;;9.77;8.87;;;4.90;99.90;;;;;;5072991;28;20449;-51
2021/12/30 08:48:16;;;;;;;8.47;7.60;;;5.00;99.90;;;;;;5070963;28;20534;-49
2021/12/30 08:50:44;;;;;;;6.60;6.10;;;5.10;99.90;;;;;;5070839;28;20525;-49
2021/12/30 08:53:11;;;;;;;5.87;5.47;;;5.30;99.90;;;;;;5074645;28;20492;-49
2021/12/30 08:55:38;;;;;;;4.50;4.10;;;5.40;99.90;;;;;;5072327;28;20472;-50
2021/12/30 08:58:06;;;;;;;4.17;3.80;;;5.50;99.90;;;;;;5070410;28;21009;-49
2021/12/30 09:00:38;;;;;;;4.30;4.00;;;5.60;99.90;;;;;;5069518;28;20518;-48
2021/12/30 09:03:05;;;;;;;4.53;4.23;;;5.70;99.90;;;;;;5073583;28;20462;-49
2021/12/30 09:05:33;;;;;;;6.00;5.40;;;5.70;99.90;;;;;;5071784;28;20531;-49
2021/12/30 09:08:00;;;;;;;5.37;4.93;;;5.70;99.90;;;;;;5073120;28;20485;-49
2021/12/30 09:10:29;;;;;;;5.13;4.73;;;5.90;99.90;;;;;;5068166;28;20496;-47
2021/12/30 09:12:56;;;;;;;4.37;4.00;;;6.00;99.90;;;;;;5072263;28;20576;-50
2021/12/30 09:15:26;;;;;;;4.80;4.40;;;5.80;99.90;;;;;;5070832;28;20525;-48
2021/12/30 09:17:54;;;;;;;4.37;3.97;;;6.00;99.90;;;;;;5063670;28;20472;-50
2021/12/30 09:20:22;;;;;;;4.67;4.27;;;6.00;99.90;;;;;;5074180;28;20498;-50
2021/12/30 09:22:49;;;;;;;3.30;2.97;;;6.00;99.90;;;;;;5074194;28;20484;-49
2021/12/30 09:25:19;;;;;;;4.00;3.60;;;6.10;99.90;;;;;;5070586;28;20526;-51
2021/12/30 09:27:46;;;;;;;3.33;3.13;;;6.10;99.90;;;;;;5069327;28;21361;-48
2021/12/30 09:30:16;;;;;;;4.00;3.60;;;6.20;99.90;;;;;;5065257;28;20564;-52
2021/12/30 09:32:46;;;;;;;5.60;3.97;;;6.20;99.90;;;;;;5070100;28;20483;-50
2021/12/30 09:35:14;;;;;;;3.20;2.57;;;6.30;99.90;;;;;;5074466;28;20471;-50
2021/12/30 09:37:41;;;;;;;3.37;3.07;;;6.20;99.90;;;;;;5068975;28;20531;-50
2021/12/30 09:40:13;;;;;;;3.93;3.20;;;6.30;99.90;;;;;;5073868;28;20525;-51
2021/12/30 09:42:43;;;;;;;2.80;2.57;;;6.30;99.90;;;;;;5071892;28;20842;-50
2021/12/30 09:45:11;;;;;;;5.30;3.67;;;6.20;99.90;;;;;;5070103;28;20486;-50
2021/12/30 09:47:45;;;;;;;2.37;2.17;;;6.30;99.90;;;;;;5068579;28;20449;-50
2021/12/30 09:50:12;;;;;;;3.17;2.83;;;6.40;99.90;;;;;;5069758;28;20624;-48
2021/12/30 09:52:39;;;;;;;3.20;2.90;;;6.30;99.90;;;;;;5070084;28;20535;-52
2021/12/30 09:55:07;;;;;;;14.83;13.47;;;6.20;99.90;;;;;;5072155;28;20518;-48
2021/12/30 09:57:34;;;;;;;27.40;24.70;;;6.10;99.90;;;;;;5071136;28;20891;-50
2021/12/30 10:00:03;;;;;;;13.10;12.00;;;6.20;99.90;;;;;;5072737;28;20889;-50
2021/12/30 10:02:30;;;;;;;5.57;5.00;;;6.30;99.90;;;;;;5076566;28;20462;-49
2021/12/30 10:05:05;;;;;;;4.40;4.00;;;6.20;99.90;;;;;;5070024;28;20491;-49
2021/12/30 10:07:32;;;;;;;4.10;3.50;;;6.30;99.90;;;;;;5071297;28;20479;-48
2021/12/30 10:10:01;;;;;;;8.30;7.17;;;6.40;99.90;;;;;;5070294;28;20448;-48
2021/12/30 10:12:35;;;;;;;8.87;8.07;;;6.40;99.90;;;;;;5075815;28;20549;-49
2021/12/30 10:15:03;;;;;;;14.10;12.17;;;6.40;99.90;;;;;;5070340;28;20446;-49
2021/12/30 10:17:30;;;;;;;17.97;16.20;;;6.50;99.90;;;;;;5071833;28;20528;-51
2021/12/30 10:20:18;;;;;;;16.40;14.70;;;6.20;99.90;;;;;;5070417;28;20472;-48
2021/12/30 10:22:47;;;;;;;68.53;60.60;;;5.80;99.90;;;;;;5069719;28;20501;-48
2021/12/30 10:25:32;;;;;;;130.87;108.73;;;5.80;99.90;;;;;;5070298;28;20924;-48
2021/12/30 10:28:19;;;;;;;42.50;37.87;;;6.00;99.90;;;;;;5068447;28;20539;-48
2021/12/30 10:30:46;;;;;;;13.57;12.27;;;6.20;99.90;;;;;;5076144;28;20569;-49
2021/12/30 10:33:15;;;;;;;12.50;11.50;;;6.30;99.90;;;;;;5069857;28;20487;-51
2021/12/30 10:35:44;;;;;;;12.30;10.47;;;6.40;99.90;;;;;;5068625;28;20875;-50
2021/12/30 10:38:11;;;;;;;9.30;8.30;;;6.60;99.90;;;;;;5068237;28;20530;-51
2021/12/30 10:40:42;;;;;;;8.67;7.87;;;6.60;99.90;;;;;;5080497;28;20436;-49
2021/12/30 10:43:27;;;;;;;5.20;4.70;;;6.70;99.90;;;;;;5068915;28;20543;-49
2021/12/30 10:46:09;;;;;;;8.07;6.50;;;6.70;99.90;;;;;;5069420;28;20540;-49
2021/12/30 10:48:49;;;;;;;6.07;5.53;;;6.90;99.90;;;;;;5068710;28;20476;-49
2021/12/30 10:51:21;;;;;;;8.00;7.30;;;7.10;99.90;;;;;;5071524;28;20559;-49
2021/12/30 10:53:49;;;;;;;13.93;12.33;;;7.20;99.90;;;;;;5069650;28;20551;-50
2021/12/30 10:56:24;;;;;;;7.87;7.20;;;7.20;99.90;;;;;;5068827;28;20987;-48
2021/12/30 10:58:54;;;;;;;7.13;6.43;;;7.30;99.90;;;;;;5069630;28;20528;-49
2021/12/30 11:01:24;;;;;;;6.63;5.90;;;7.30;99.90;;;;;;5072112;28;20476;-49
2021/12/30 11:03:59;;;;;;;7.67;6.97;;;7.30;99.90;;;;;;5070516;28;20471;-49
2021/12/30 11:06:28;;;;;;;6.83;5.60;;;7.40;99.90;;;;;;5076828;28;20527;-49
2021/12/30 11:09:12;;;;;;;36.57;33.87;;;7.30;99.90;;;;;;5058210;28;20472;-51
2021/12/30 11:11:42;;;;;;;4.93;3.90;;;7.30;99.90;;;;;;5058982;28;20512;-52
2021/12/30 11:14:11;;;;;;;3.30;3.00;;;7.40;99.90;;;;;;5063904;28;20485;-51
2021/12/30 11:17:14;;;;;;;4.23;3.90;;;7.50;99.90;;;;;;5064173;28;20523;-51
2021/12/30 11:19:42;;;;;;;3.07;2.77;;;7.60;99.90;;;;;;5065275;28;20445;-52
2021/12/30 11:22:14;;;;;;;9.00;8.10;;;7.70;99.90;;;;;;5061463;28;20450;-51
2021/12/30 11:24:43;;;;;;;7.47;6.23;;;7.70;99.90;;;;;;5061318;28;20911;-51
2021/12/30 11:27:11;;;;;;;6.60;5.27;;;7.80;99.90;;;;;;5063784;28;20437;-51
2021/12/30 11:29:39;;;;;;;4.80;4.40;;;7.80;99.90;;;;;;5063600;28;20472;-53
2021/12/30 11:32:08;;;;;;;5.10;4.60;;;7.90;99.90;;;;;;5060940;28;20924;-54
2021/12/30 11:34:35;;;;;;;7.60;4.93;;;7.90;99.90;;;;;;5069096;28;20530;-51
2021/12/30 11:37:03;;;;;;;5.57;4.40;;;7.80;99.90;;;;;;5068851;28;20520;-51
2021/12/30 11:39:32;;;;;;;5.87;2.47;;;7.80;99.90;;;;;;5066906;28;20487;-52
2021/12/30 11:42:05;;;;;;;5.43;2.90;;;7.80;99.90;;;;;;5070503;28;20479;-52
2021/12/30 11:44:39;;;;;;;2.73;2.30;;;7.90;99.90;;;;;;5078901;28;20468;-50
2021/12/30 11:47:08;;;;;;;1.67;1.57;;;7.90;99.90;;;;;;5073699;28;20578;-52
2021/12/30 11:49:55;;;;;;;1.77;1.43;;;7.70;99.90;;;;;;5069337;28;20536;-49
2021/12/30 11:52:57;;;;;;;9.50;6.90;;;7.70;99.90;;;;;;5065551;28;20567;-48
2021/12/30 11:55:59;;;;;;;13.43;12.07;;;7.80;99.90;;;;;;5062997;28;20952;-52
2021/12/30 11:58:51;;;;;;;11.03;10.03;;;7.80;99.90;;;;;;5065732;28;20478;-54
2021/12/30 12:01:37;;;;;;;6.53;4.83;;;7.60;99.90;;;;;;5073299;28;20479;-50
2021/12/30 12:04:17;;;;;;;12.30;11.00;;;7.40;99.90;;;;;;5077724;28;21026;-52
2021/12/30 12:07:03;;;;;;;13.30;11.73;;;7.60;99.90;;;;;;5072496;28;20486;-50
2021/12/30 12:09:39;;;;;;;38.20;26.17;;;7.60;99.90;;;;;;5068897;28;20439;-50
2021/12/30 12:12:09;;;;;;;11.07;9.10;;;7.50;99.90;;;;;;5103200;22;20508;-84
2021/12/30 12:14:39;;;;;;;8.60;7.73;;;7.40;99.90;;;;;;5075821;28;20441;-84
2021/12/30 12:17:08;;;;;;;8.40;7.50;;;7.40;99.90;;;;;;5074764;28;20436;-85
2021/12/30 12:19:41;;;;;;;14.47;10.63;;;7.60;99.90;;;;;;5056531;28;20458;-84
2021/12/30 12:22:10;;;;;;;16.17;14.47;;;7.60;99.90;;;;;;5049044;28;20437;-85
2021/12/30 12:24:39;;;;;;;12.53;11.23;;;7.50;99.90;;;;;;5057203;28;20434;-84
2021/12/30 12:27:11;;;;;;;12.00;9.30;;;7.50;99.90;;;;;;5052806;28;20480;-84
2021/12/30 12:29:45;;;;;;;7.80;6.77;;;7.70;99.90;;;;;;5053891;28;20470;-83
2021/12/30 12:32:14;;;;;;;8.50;6.60;;;7.80;99.90;;;;;;5046594;28;20499;-85
2021/12/30 12:34:45;;;;;;;7.60;6.40;;;7.90;99.90;;;;;;5057280;28;20499;-84
2021/12/30 12:38:01;;;;;;;9.67;7.03;;;8.00;99.90;;;;;;5058712;28;20449;-83
2021/12/30 12:40:32;;;;;;;8.67;7.77;;;8.00;99.90;;;;;;5013771;28;21034;-84
2021/12/30 12:43:07;;;;;;;12.23;11.03;;;7.90;99.90;;;;;;5045998;28;20477;-85
2021/12/30 12:45:36;;;;;;;10.97;9.50;;;7.90;99.90;;;;;;5055314;28;20437;-84
2021/12/30 12:48:26;;;;;;;15.70;12.50;;;7.90;99.90;;;;;;5055840;28;20805;-83
2021/12/30 12:50:56;;;;;;;29.00;22.17;;;7.70;99.90;;;;;;5055935;28;20997;-83
2021/12/30 12:53:41;;;;;;;13.30;11.17;;;7.90;99.90;;;;;;5055412;28;21028;-84
2021/12/30 12:56:10;;;;;;;6.77;5.67;;;7.90;99.90;;;;;;5049287;28;20937;-85
2021/12/30 12:58:40;;;;;;;5.10;4.70;;;7.80;99.90;;;;;;5056109;28;20473;-84
2021/12/30 13:01:09;;;;;;;5.70;4.80;;;7.80;99.90;;;;;;5053875;28;20462;-83
2021/12/30 13:03:37;;;;;;;14.50;12.00;;;8.00;99.90;;;;;;5053909;28;21305;-85
2021/12/30 13:06:08;;;;;;;15.00;13.50;;;8.10;99.90;;;;;;5055719;28;20487;-84